Tiempo atmosférico en la estación meteorológica de Bailo, Huesca (722 m.)



Fecha
DESCASC
Temp. máxima en grados centígrados (hora)
DESCASC
Temp. mínima en grados centígrados (hora)
DESCASC
Temp. media en grados centígrados
DESCASC
Racha de viento máxima en m/sg (hora)
DESCASC
Velocidad máxima media en intervalos de 10 minutos(hora)
DESCASC
Precipitaciones diarias en mm
DESCASC
Precipitaciones de 00:00 a 06:00 en mm
DESCASC
Precipitaciones de 06:00 a 12:00 en mm
DESCASC
Precipitaciones de 12:00 a 18:00 en mm
DESCASC
Precipitaciones de 18:00 a 24:00 en mm
DESCASC
02-08-2020 26 (14:50) 14.9 (06:00) 20.4 11.11 (16:40) 7.78 (16:40) 0 0 0 0 0
01-08-2020 33.1 (15:30) 18.5 (07:20) 25.8 10.28 (16:50) 8.33 (18:00) 0 0 0 0 0
31-07-2020 36.3 (17:40) 23.5 (02:30) 29.9 11.39 (05:20) 8.89 (05:20) 0 0 0 0 0
30-07-2020 36.7 (17:10) 22.5 (00:00) 29.6 15.83 (18:10) 11.11 (18:10) 0 0 0 0 0
29-07-2020 33.1 (17:20) 17.2 (00:00) 25.1 9.72 (14:20) 6.11 (20:20) 0 0 0 0 0
28-07-2020 34 (16:20) 18.5 (00:00) 26.3 8.33 (00:10) 5.56 (03:00) 0 0 0 0 0
27-07-2020 36.6 (18:00) 20.8 (00:00) 28.7 26.11 (20:30) 16.94 (20:30) 3.6 0 0 0 3.6
26-07-2020 33.3 (18:10) 16.1 (00:00) 24.7 8.61 (17:20) 5 (17:50) 0 0 0 0 0
25-07-2020 32.1 (17:50) 11.7 (00:00) 21.9 7.5 (23:00) 5.28 (23:00) 0 0 0 0 0
24-07-2020 30.2 (16:30) 15.3 (00:00) 22.8 10.28 (16:10) 5.56 (17:30) 0 0 0 0 0
23-07-2020 32.9 (16:20) 16.5 (00:00) 24.7 11.11 (18:10) 6.94 (15:40) 0 0 0 0 0
22-07-2020 33.4 (17:20) 19.9 (00:00) 26.7 11.39 (13:30) 6.67 (18:30) 0 0 0 0 0
21-07-2020 33.9 (17:50) 17.5 (00:00) 25.7 10.28 (20:30) 6.94 (20:30) 0 0 0 0 0
20-07-2020 32.7 (16:00) 18.8 (00:00) 25.8 12.22 (22:00) 8.33 (22:10) 0 0 0 0 0
19-07-2020 33 (16:00) 17.6 (00:00) 25.3 10 (23:59) 6.67 (23:59) 0 0 0 0 0
18-07-2020 32 (18:20) 11.7 (00:00) 21.8 7.22 (15:00) 4.17 (20:50) 0 0 0 0 0
17-07-2020 27.3 (16:30) 11.4 (00:00) 19.3 9.72 (18:00) 6.67 (18:40) 0 0 0 0 0
16-07-2020 27.9 (17:20) 10.5 (00:00) 19.2 8.89 (18:10) 5.83 (18:10) 0 0 0 0 0
15-07-2020 22.3 (14:00) 11 (00:00) 16.6 14.72 (17:40) 9.72 (14:40) 0 0 0 0 0
14-07-2020 26.3 (17:00) 12.5 (00:00) 19.4 9.17 (18:10) 7.22 (19:10) 0 0 0 0 0
13-07-2020 28.2 (15:30) 15.2 (00:00) 21.7 11.94 (19:40) 8.06 (19:40) 0 0 0 0 0
12-07-2020 28.6 (18:40) 16.9 (07:10) 22.8 8.33 (10:50) 5.83 (23:30) 3.8 0 0 3.8 0
11-07-2020 30.2 (19:40) 13.9 (06:00) 22.1 6.67 (15:10) 3.06 (19:10) 0 0 0 0 0
10-07-2020 30.2 (14:40) 16.9 (00:00) 23.6 9.72 (18:40) 6.39 (18:40) 2.2 2.2 0 0 0
09-07-2020 32.3 (17:20) 18.9 (06:10) 25.6 9.17 (20:40) 5.28 (09:20) 0 0 0 0 0
08-07-2020 33.1 (17:30) 12.9 (06:10) 23 11.39 (20:30) 8.33 (20:30) 0 0 0 0 0
07-07-2020 30 (18:10) 9.8 (06:40) 19.9 9.17 (14:00) 5.28 (17:50) 0 0 0 0 0

Gráficas

Temp. máximas Temp. mínimas Temp. medias Precipitaciones Rachas de viento máximas Velocidades máximas media en intervalos de 10 minutos

Datos horarios

Fecha y hora oficial Temperatura (ºC) Velocidad del viento (km/h) Dirección del viento Racha (km/h) Dirección de racha Precipitación (mm) Presión (hPa) Tendencia (hPa) Humedad (%)
2020-08-05 23:00:00 24.1 6 Sudoeste 9 Sudoeste 0 -- -- 48
2020-08-05 22:00:00 25.7 6 Noroeste 17 Noroeste 0 -- -- 43
2020-08-05 21:00:00 28.8 11 Noroeste 19 Noroeste 0 -- -- 27
2020-08-05 20:00:00 31.5 14 Oeste 26 Noroeste 0 -- -- 25
2020-08-05 19:00:00 32.2 11 Oeste 24 Noroeste 0 -- -- 27
2020-08-05 18:00:00 32.9 13 Noroeste 24 Noroeste 0 -- -- 28
2020-08-05 17:00:00 32.3 14 Norte 27 Noroeste 0 -- -- 28
2020-08-05 16:00:00 31.5 10 Este 21 Este 0 -- -- 28
2020-08-05 15:00:00 30.6 10 Nordeste 20 Noroeste 0 -- -- 30
2020-08-05 14:00:00 29 6 Norte 21 Nordeste 0 -- -- 28
2020-08-05 13:00:00 27.4 5 Noroeste 13 Noroeste 0 -- -- 33
2020-08-05 12:00:00 25.2 6 Noroeste 12 Norte 0 -- -- 39
2020-08-05 11:00:00 21.5 5 Este 11 Nordeste 0 -- -- 50
2020-08-05 10:00:00 17.5 4 Noroeste 9 Norte 0 -- -- 60
2020-08-05 09:00:00 14.7 2 Noroeste 4 Sudoeste 0 -- -- 69
2020-08-05 08:00:00 13.1 3 Nordeste 5 Norte 0 -- -- 75
2020-08-05 07:00:00 11.6 3 Oeste 4 Oeste 0 -- -- 78
2020-08-05 06:00:00 12.3 0 Calma 4 Nordeste 0 -- -- 76
2020-08-05 05:00:00 13.3 0 Calma 4 Sudoeste 0 -- -- 72
2020-08-05 04:00:00 13.8 0 Calma 4 Noroeste 0 -- -- 70
2020-08-05 03:00:00 14.6 0 Calma 6 Oeste 0 -- -- 66
2020-08-05 02:00:00 15.3 3 Sudoeste 7 Sudoeste 0 -- -- 64
2020-08-05 01:00:00 15.9 3 Oeste 9 Sudoeste 0 -- -- 62
2020-08-05 00:00:00 17.2 5 Sur 8 Sur 0 -- -- 58
2020-08-04 23:00:00 18 0 Calma 8 Noroeste 0 -- -- 55
2020-08-04 22:00:00 19.6 2 Noroeste 14 Noroeste 0 -- -- 50
2020-08-04 21:00:00 22.6 13 Norte 24 Norte 0 -- -- 42
2020-08-04 20:00:00 25 19 Noroeste 31 Noroeste 0 -- -- 35
2020-08-04 19:00:00 26.7 20 Noroeste 29 Norte 0 -- -- 32
2020-08-04 18:00:00 27.1 21 Noroeste 31 Noroeste 0 -- -- 30
2020-08-04 17:00:00 27.5 18 Norte 33 Norte 0 -- -- 31
2020-08-04 16:00:00 27.5 19 Noroeste 36 Noroeste 0 -- -- 31
2020-08-04 15:00:00 27.3 14 Norte 27 Norte 0 -- -- 29
2020-08-04 14:00:00 26.2 12 Noroeste 25 Noroeste 0 -- -- 28
2020-08-04 13:00:00 25.3 9 Norte 23 Noroeste 0 -- -- 32
2020-08-04 12:00:00 23.9 9 Nordeste 21 Noroeste 0 -- -- 37
2020-08-04 11:00:00 21.9 8 Nordeste 13 Nordeste 0 -- -- 44
2020-08-04 10:00:00 18.5 5 Sur 9 Noroeste 0 -- -- 57
2020-08-04 09:00:00 17.4 4 Este 8 Este 0 -- -- 62
2020-08-04 08:00:00 15.1 3 Este 13 Noroeste 0 -- -- 70
2020-08-04 07:00:00 13.1 9 Noroeste 18 Oeste 0 -- -- 76
2020-08-04 06:00:00 13.9 13 Noroeste 20 Noroeste 0 -- -- 73
2020-08-04 05:00:00 14 14 Noroeste 22 Oeste 0 -- -- 72
2020-08-04 04:00:00 14.5 7 Oeste 24 Noroeste 0 -- -- 70
2020-08-04 03:00:00 15.4 13 Noroeste 21 Noroeste 0 -- -- 67
2020-08-04 02:00:00 15.9 12 Oeste 26 Oeste 0 -- -- 66
2020-08-04 01:00:00 16.3 6 Noroeste 21 Noroeste 0 -- -- 64
2020-08-04 00:00:00 16.6 8 Noroeste 30 Oeste 0 -- -- 63
2020-08-03 23:00:00 17 21 Oeste 38 Oeste 0 -- -- 62
2020-08-03 22:00:00 17.7 26 Oeste 39 Oeste 0 -- -- 58
2020-08-03 21:00:00 18.7 23 Oeste 41 Oeste 0 -- -- 54
2020-08-03 20:00:00 21.2 24 Noroeste 52 Norte 0 -- -- 49
2020-08-03 19:00:00 22.5 33 Noroeste 51 Noroeste 0 -- -- 45
2020-08-03 18:00:00 23.3 36 Noroeste 53 Noroeste 0 -- -- 43
2020-08-03 17:00:00 24.1 33 Noroeste 54 Noroeste 0 -- -- 41
2020-08-03 16:00:00 24.4 38 Norte 57 Noroeste 0 -- -- 39
2020-08-03 15:00:00 24.4 37 Noroeste 54 Noroeste 0 -- -- 37
2020-08-03 14:00:00 23.9 26 Noroeste 40 Noroeste 0 -- -- 39
2020-08-03 13:00:00 23 23 Noroeste 40 Noroeste 0 -- -- 39
2020-08-03 12:00:00 21.4 23 Norte 40 Norte 0 -- -- 41
2020-08-03 11:00:00 19.7 28 Noroeste 44 Noroeste 0 -- -- 43
2020-08-03 10:00:00 18.3 23 Noroeste 37 Noroeste 0 -- -- 44
2020-08-03 09:00:00 16.8 12 Noroeste 23 Noroeste 0 -- -- 52
2020-08-03 08:00:00 15 10 Noroeste 33 Noroeste 0 -- -- 60
2020-08-03 07:00:00 13.9 7 Noroeste 22 Noroeste 0 -- -- 64
2020-08-03 06:00:00 14.7 15 Noroeste 23 Noroeste 0 -- -- 62
2020-08-03 05:00:00 15.1 6 Norte 19 Noroeste 0 -- -- 62
2020-08-03 04:00:00 15.5 12 Noroeste 27 Noroeste 0 -- -- 62
2020-08-03 03:00:00 15.9 14 Noroeste 26 Noroeste 0 -- -- 62
2020-08-03 02:00:00 16.3 13 Noroeste 35 Noroeste 0 -- -- 63
2020-08-03 01:00:00 16.6 16 Noroeste 33 Noroeste 0 -- -- 63
2020-08-03 00:00:00 17 22 Noroeste 34 Noroeste 0 -- -- 61
2020-08-02 23:00:00 17.5 22 Noroeste 32 Noroeste 0 -- -- 60
2020-08-02 22:00:00 17.6 20 Noroeste 36 Noroeste 0 -- -- 58
2020-08-02 21:00:00 18.6 21 Noroeste 38 Noroeste 0 -- -- 56
2020-08-02 20:00:00 20.1 19 Norte 33 Norte 0 -- -- 55
2020-08-02 19:00:00 20.4 20 Noroeste 33 Norte 0 -- -- 57
2020-08-02 18:00:00 21.6 23 Norte 40 Norte 0 -- -- 53
2020-08-02 17:00:00 23.3 23 Norte 40 Noroeste 0 -- -- 51
2020-08-02 16:00:00 24.9 23 Norte 34 Norte 0 -- -- 47
2020-08-02 15:00:00 25.6 22 Noroeste 36 Noroeste 0 -- -- 45
2020-08-02 14:00:00 25.5 20 Noroeste 33 Noroeste 0 -- -- 46
2020-08-02 13:00:00 25.2 17 Noroeste 29 Norte 0 -- -- 48
2020-08-02 12:00:00 24.1 17 Noroeste 24 Noroeste 0 -- -- 50
2020-08-02 11:00:00 22.5 12 Norte 22 Norte 0 -- -- 57
2020-08-02 10:00:00 20.3 9 Norte 17 Noroeste 0 -- -- 63
2020-08-02 09:00:00 19.6 4 Nordeste 9 Nordeste 0 -- -- 65
2020-08-02 08:00:00 17.3 2 Sudeste 5 Sudoeste 0 -- -- 75
2020-08-02 07:00:00 15.3 0 Calma 5 Oeste 0 -- -- 80
2020-08-02 06:00:00 14.9 4 Oeste 6 Sudeste 0 -- -- 78
2020-08-02 05:00:00 15.5 4 Norte 6 Noroeste 0 -- -- 75
2020-08-02 04:00:00 16.6 0 Calma 6 Sudoeste 0 -- -- 71
2020-08-02 03:00:00 17 3 Oeste 8 Sudoeste 0 -- -- 68
2020-08-02 02:00:00 17.8 3 Sudoeste 5 Sudoeste 0 -- -- 65
2020-08-02 01:00:00 18.3 0 Calma 11 Noroeste 0 -- -- 65
2020-08-02 00:00:00 18.7 4 Oeste 13 Norte 0 -- -- 65
2020-08-01 23:00:00 19.2 8 Noroeste 18 Norte 0 -- -- 65
2020-08-01 22:00:00 21 13 Noroeste 27 Noroeste 0 -- -- 62
2020-08-01 21:00:00 23.3 16 Norte 32 Norte 0 -- -- 56
2020-08-01 20:00:00 26.5 23 Norte 35 Norte 0 -- -- 50
2020-08-01 19:00:00 29.5 22 Noroeste 37 Noroeste 0 -- -- 44
2020-08-01 18:00:00 30.8 30 Noroeste 36 Noroeste 0 -- -- 41
2020-08-01 17:00:00 31.7 26 Noroeste 37 Noroeste 0 -- -- 39
2020-08-01 16:00:00 32.6 24 Noroeste 36 Noroeste 0 -- -- 36
2020-08-01 15:00:00 32.9 17 Noroeste 34 Noroeste 0 -- -- 38
2020-08-01 14:00:00 31.6 14 Norte 22 Noroeste 0 -- -- 41
2020-08-01 13:00:00 30.8 9 Norte 19 Nordeste 0 -- -- 40
2020-08-01 12:00:00 27.5 5 Noroeste 13 Noroeste 0 -- -- 49
2020-08-01 11:00:00 25.3 4 Norte 12 Nordeste 0 -- -- 57
2020-08-01 10:00:00 24.1 6 Este 12 Sudeste 0 -- -- 59
2020-08-01 09:00:00 22 3 Sudeste 8 Este 0 -- -- 64
2020-08-01 08:00:00 19.8 2 Sur 4 Sudeste 0 -- -- 56
2020-08-01 07:00:00 19.1 0 Calma 7 Norte 0 -- -- 54
2020-08-01 06:00:00 19.5 6 Noroeste 12 Noroeste 0 -- -- 53
2020-08-01 05:00:00 19.7 7 Noroeste 10 Noroeste 0 -- -- 52
2020-08-01 04:00:00 21.3 3 Norte 8 Oeste 0 -- -- 48
2020-08-01 03:00:00 22.3 0 Calma 6 Este 0 -- -- 45
2020-08-01 02:00:00 23.3 0 Calma 9 Oeste 0 -- -- 42
2020-08-01 01:00:00 23.7 6 Sudoeste 10 Oeste 0 -- -- 41
2020-08-01 00:00:00 25.2 3 Sur 9 Oeste 0 -- -- 36
2020-07-31 23:00:00 27.4 3 Norte 9 Sudoeste 0 -- -- 33
2020-07-31 22:00:00 29 4 Oeste 9 Sudoeste 0 -- -- 30
2020-07-31 21:00:00 32.3 3 Oeste 15 Noroeste 0 -- -- 28
2020-07-31 20:00:00 34.8 12 Norte 19 Oeste 0 -- -- 24
2020-07-31 19:00:00 36.3 9 Oeste 24 Sudoeste 0 -- -- 17
2020-07-31 18:00:00 36.1 10 Sudoeste 26 Sudoeste 0 -- -- 17
2020-07-31 17:00:00 36.1 18 Sudoeste 27 Oeste 0 -- -- 18
2020-07-31 16:00:00 35.7 9 Oeste 32 Oeste 0 -- -- 23
2020-07-31 15:00:00 34.9 14 Sudoeste 31 Sudoeste 0 -- -- 23
2020-07-31 14:00:00 34.4 13 Sur 33 Sudeste 0 -- -- 25
2020-07-31 13:00:00 33.3 16 Sur 31 Sur 0 -- -- 27
2020-07-31 12:00:00 31.4 23 Sudoeste 37 Sur 0 -- -- 30
2020-07-31 11:00:00 30.1 23 Sur 36 Sur 0 -- -- 32
2020-07-31 10:00:00 29.4 13 Sur 33 Sudoeste 0 -- -- 34
2020-07-31 09:00:00 26.3 23 Sur 36 Sur 0 -- -- 38
2020-07-31 08:00:00 25.1 23 Sudoeste 31 Sur 0 -- -- 41
2020-07-31 07:00:00 23.5 21 Sur 30 Sur 0 -- -- 46
2020-07-31 06:00:00 23.8 19 Sudoeste 41 Sur 0 -- -- 46
2020-07-31 05:00:00 24.1 25 Sudoeste 36 Sudoeste 0 -- -- 47
2020-07-31 04:00:00 24.6 17 Sur 30 Sur 0 -- -- 47
2020-07-31 03:00:00 23.9 11 Sudeste 19 Sudeste 0 -- -- 49
2020-07-31 02:00:00 23.8 9 Sur 16 Sudoeste 0 -- -- 49
2020-07-31 01:00:00 24.9 2 Sur 28 Nordeste 0 -- -- 46
2020-07-31 00:00:00 25.8 15 Nordeste 33 Sudoeste 0 -- -- 43
2020-07-30 23:00:00 26.2 18 Sudoeste 34 Oeste 0 -- -- 43
2020-07-30 22:00:00 25.3 9 Sudoeste 14 Nordeste 0 -- -- 47
2020-07-30 21:00:00 26.8 13 Norte 45 Oeste 0 -- -- 42
2020-07-30 20:00:00 29.7 26 Oeste 34 Oeste 0 -- -- 36
2020-07-30 19:00:00 31.6 21 Sur 57 Sur 0 -- -- 30
2020-07-30 18:00:00 34.4 34 Sudoeste 50 Sudoeste 0 -- -- 25
2020-07-30 17:00:00 36.6 17 Sudoeste 34 Sudoeste 0 -- -- 23
2020-07-30 16:00:00 36 23 Sudoeste 34 Sur 0 -- -- 24
2020-07-30 15:00:00 35.1 22 Sur 35 Sudoeste 0 -- -- 24
2020-07-30 14:00:00 34.1 21 Sur 34 Sur 0 -- -- 26
2020-07-30 13:00:00 33.2 19 Sur 31 Sur 0 -- -- 27
2020-07-30 12:00:00 31.5 14 Sur 30 Sur 0 -- -- 31
2020-07-30 11:00:00 30.6 13 Sudeste 27 Sudeste 0 -- -- 32
2020-07-30 10:00:00 28.4 11 Sur 22 Sudeste 0 -- -- 38
2020-07-30 09:00:00 25.8 11 Sur 30 Sudoeste 0 -- -- 45
2020-07-30 08:00:00 24 19 Sur 29 Sur 0 -- -- 50
2020-07-30 07:00:00 23.3 14 Sur 21 Sur 0 -- -- 53
2020-07-30 06:00:00 22.8 6 Sur 22 Sur 0 -- -- 55
2020-07-30 05:00:00 23.4 12 Sur 23 Sur 0 -- -- 53
2020-07-30 04:00:00 24 16 Sur 23 Sur 0 -- -- 52
2020-07-30 03:00:00 24.8 11 Sur 18 Sur 0 -- -- 50
2020-07-30 02:00:00 24.5 3 Este 22 Sur 0 -- -- 50
2020-07-30 01:00:00 25.3 10 Sur 16 Sur 0 -- -- 49
2020-07-30 00:00:00 25.1 8 Este 14 Este 0 -- -- 45
2020-07-29 23:00:00 26.5 9 Sudeste 22 Sur 0 -- -- 41
2020-07-29 22:00:00 28.6 18 Sur 32 Sur 0 -- -- 32
2020-07-29 21:00:00 29.9 21 Sudoeste 33 Sudoeste 0 -- -- 29
2020-07-29 20:00:00 31.5 19 Sudoeste 30 Sur 0 -- -- 28
2020-07-29 19:00:00 32.5 17 Sudoeste 29 Sur 0 -- -- 29
2020-07-29 18:00:00 32.7 18 Sudoeste 31 Sudoeste 0 -- -- 30
2020-07-29 17:00:00 33 17 Sudoeste 33 Sudoeste 0 -- -- 31
2020-07-29 16:00:00 32 15 Sudoeste 32 Sudoeste 0 -- -- 32
2020-07-29 15:00:00 31.4 17 Sudoeste 35 Sudoeste 0 -- -- 34
2020-07-29 14:00:00 30.5 16 Sudoeste 28 Sudoeste 0 -- -- 35
2020-07-29 13:00:00 28.8 17 Sur 32 Sur 0 -- -- 39
2020-07-29 12:00:00 27.1 13 Sur 25 Sudoeste 0 -- -- 47
2020-07-29 11:00:00 23 5 Norte 10 Sur 0 -- -- 64
2020-07-29 10:00:00 19.8 3 Sudeste 7 Este 0 -- -- 82
2020-07-29 09:00:00 18 0 Calma 7 Oeste 0 -- -- 89
2020-07-29 08:00:00 17.6 5 Noroeste 8 Noroeste 0 -- -- 88
2020-07-29 07:00:00 17.2 2 Este 4 Este 0 -- -- 87
2020-07-29 06:00:00 17.8 0 Calma 3 Noroeste 0 -- -- 85
2020-07-29 05:00:00 18.1 0 Calma 6 Oeste 0 -- -- 85
2020-07-29 04:00:00 18.2 5 Noroeste 9 Noroeste 0 -- -- 85
2020-07-29 03:00:00 19.6 5 Sudoeste 8 Sudoeste 0 -- -- 79
2020-07-29 02:00:00 20.2 3 Sur 7 Sudoeste 0 -- -- 77
2020-07-29 01:00:00 20.7 3 Sudeste 9 Sudeste 0 -- -- 75
2020-07-29 00:00:00 21.4 4 Sudeste 8 Sudeste 0 -- -- 73
2020-07-28 23:00:00 22.5 5 Nordeste 10 Norte 0 -- -- 69
2020-07-28 22:00:00 25 9 Norte 18 Norte 0 -- -- 62
2020-07-28 21:00:00 28.9 9 Norte 18 Norte 0 -- -- 52
2020-07-28 20:00:00 30.2 15 Norte 29 Norte 0 -- -- 49
2020-07-28 19:00:00 32.8 13 Noroeste 23 Norte 0 -- -- 40
2020-07-28 18:00:00 33.9 6 Norte 18 Sudoeste 0 -- -- 39
2020-07-28 17:00:00 34 13 Sur 27 Sur 0 -- -- 30
2020-07-28 16:00:00 33.8 14 Sur 26 Sur 0 -- -- 30
2020-07-28 15:00:00 32.4 15 Sudoeste 28 Sudoeste 0 -- -- 31
2020-07-28 14:00:00 31.8 12 Sur 29 Sudoeste 0 -- -- 34
2020-07-28 13:00:00 28.9 6 Nordeste 14 Nordeste 0 -- -- 53
2020-07-28 12:00:00 26.1 4 Nordeste 10 Noroeste 0 -- -- 62
2020-07-28 11:00:00 24 6 Nordeste 12 Este 0 -- -- 70
2020-07-28 10:00:00 21.3 4 Oeste 10 Noroeste 0 -- -- 79
2020-07-28 09:00:00 20.1 7 Noroeste 11 Noroeste 0 -- -- 86
2020-07-28 08:00:00 18.7 2 Noroeste 6 Oeste 0 -- -- 89
2020-07-28 07:00:00 19 5 Noroeste 9 Sudoeste 0 -- -- 85
2020-07-28 06:00:00 19.8 4 Sudeste 9 Noroeste 0 -- -- 81
2020-07-28 05:00:00 19.6 7 Oeste 9 Noroeste 0 -- -- 86
2020-07-28 04:00:00 20.2 6 Oeste 20 Este 0 -- -- 82
2020-07-28 03:00:00 21.2 20 Este 28 Sudeste 0 -- -- 73
2020-07-28 02:00:00 21 13 Noroeste 22 Oeste 0 -- -- 77
2020-07-28 01:00:00 22.6 9 Sudeste 30 Sudeste 0 -- -- 65
2020-07-28 00:00:00 23.1 18 Sur 36 Sudoeste 0 -- -- 61
2020-07-27 23:00:00 22.5 10 Sur 37 Oeste 1.8 -- -- 68
2020-07-27 22:00:00 24.6 12 Noroeste 73 Sudeste 1 -- -- 61
2020-07-27 21:00:00 23.7 19 Sudeste 94 Oeste 0.8 -- -- 64
2020-07-27 20:00:00 33.4 13 Sudoeste 22 Sur 0 -- -- 33
2020-07-27 19:00:00 35.6 13 Sudoeste 21 Sur 0 -- -- 28
2020-07-27 18:00:00 36.6 12 Sur 22 Sudoeste 0 -- -- 26
2020-07-27 17:00:00 36.4 11 Sur 30 Sur 0 -- -- 28
2020-07-27 16:00:00 35.9 14 Sur 26 Sur 0 -- -- 29
2020-07-27 15:00:00 34.9 15 Sudoeste 30 Sur 0 -- -- 30
2020-07-27 14:00:00 33.5 17 Sudoeste 30 Sur 0 -- -- 34
2020-07-27 13:00:00 32.3 19 Sur 27 Sur 0 -- -- 38
2020-07-27 12:00:00 30.2 18 Sudoeste 28 Sur 0 -- -- 45
2020-07-27 09:00:00 -- -- -- -- -- -- -- -- --
2020-07-27 08:00:00 22.5 15 Sur 23 Sur 0 -- -- 66
2020-07-27 07:00:00 22.1 19 Sur 26 Sur 0 -- -- 69
2020-07-27 06:00:00 22.1 9 Sudeste 23 Sur 0 -- -- 64
2020-07-27 05:00:00 22.4 13 Este 24 Sudeste 0 -- -- 61
2020-07-27 04:00:00 21.9 12 Sudeste 19 Sur 0 -- -- 60
2020-07-27 03:00:00 20.8 4 Oeste 13 Sur 0 -- -- 57
2020-07-27 02:00:00 21.3 3 Noroeste 5 Noroeste 0 -- -- 60
2020-07-27 01:00:00 22.1 2 Noroeste 8 Sudoeste 0 -- -- 56
2020-07-27 00:00:00 23.7 5 Oeste 7 Sudoeste 0 -- -- 54
2020-07-26 23:00:00 25.3 3 Sudeste 9 Nordeste 0 -- -- 45
2020-07-26 22:00:00 26 5 Oeste 12 Sudoeste 0 -- -- 38
2020-07-26 21:00:00 30 4 Oeste 11 Norte 0 -- -- 33
2020-07-26 20:00:00 32 6 Norte 17 Nordeste 0 -- -- 26
2020-07-26 19:00:00 32.9 8 Norte 22 Norte 0 -- -- 25
2020-07-26 18:00:00 33.2 13 Noroeste 31 Noroeste 0 -- -- 26
2020-07-26 17:00:00 32.5 15 Norte 27 Nordeste 0 -- -- 29
2020-07-26 16:00:00 32.3 14 Nordeste 27 Este 0 -- -- 36
2020-07-26 15:00:00 30.6 7 Oeste 23 Oeste 0 -- -- 40
2020-07-26 14:00:00 30 5 Norte 18 Noroeste 0 -- -- 41
2020-07-26 13:00:00 28.6 8 Norte 21 Este 0 -- -- 43
2020-07-26 12:00:00 26.1 7 Noroeste 12 Noroeste 0 -- -- 46
2020-07-26 11:00:00 23.8 4 Norte 9 Noroeste 0 -- -- 46
2020-07-26 10:00:00 21 4 Noroeste 8 Nordeste 0 -- -- 65
2020-07-26 09:00:00 18.9 3 Noroeste 6 Este 0 -- -- 75
2020-07-26 08:00:00 17 0 Calma 5 Noroeste 0 -- -- 83
2020-07-26 07:00:00 16.5 0 Calma 5 Sudoeste 0 -- -- 81
2020-07-26 06:00:00 16.7 3 Sur 5 Sur 0 -- -- 83
2020-07-26 05:00:00 17.5 5 Noroeste 7 Sudoeste 0 -- -- 80
2020-07-26 04:00:00 18.6 5 Sudoeste 8 Sudoeste 0 -- -- 76
2020-07-26 03:00:00 19.4 3 Norte 9 Oeste 0 -- -- 73
2020-07-26 02:00:00 19.8 5 Oeste 8 Oeste 0 -- -- 72
2020-07-26 01:00:00 21.5 3 Sur 9 Sudeste 0 -- -- 62
2020-07-26 00:00:00 23.7 4 Noroeste 22 Sur 0 -- -- 49
2020-07-25 23:00:00 25.9 19 Sudoeste 27 Sudoeste 0 -- -- 37
2020-07-25 22:00:00 25.9 14 Sudoeste 16 Sudoeste 0 -- -- 36
2020-07-25 21:00:00 29.5 3 Sudoeste 13 Noroeste 0 -- -- 33
2020-07-25 20:00:00 31.6 7 Norte 16 Norte 0 -- -- 28
2020-07-25 19:00:00 31.1 8 Sudeste 25 Sudeste 0 -- -- 31
2020-07-25 18:00:00 31.6 12 Sudeste 22 Sudeste 0 -- -- 31
2020-07-25 17:00:00 31.8 9 Sur 17 Sudoeste 0 -- -- 32
2020-07-25 16:00:00 31.3 6 Noroeste 19 Sur 0 -- -- 33
2020-07-25 15:00:00 30.1 6 Sur 16 Sudeste 0 -- -- 32
2020-07-25 14:00:00 29 6 Nordeste 21 Nordeste 0 -- -- 33
2020-07-25 13:00:00 27.4 7 Nordeste 14 Este 0 -- -- 36
2020-07-25 12:00:00 24.6 5 Nordeste 11 Nordeste 0 -- -- 47
2020-07-25 11:00:00 21.7 4 Nordeste 10 Nordeste 0 -- -- 54
2020-07-25 10:00:00 18.2 4 Norte 8 Sur 0 -- -- 64
2020-07-25 09:00:00 16.1 3 Nordeste 8 Este 0 -- -- 72
2020-07-25 08:00:00 13.8 3 Este 5 Este 0 -- -- 79
2020-07-25 07:00:00 11.7 0 Calma 6 Noroeste 0 -- -- 85
2020-07-25 06:00:00 12.5 0 Calma 3 Oeste 0 -- -- 82
2020-07-25 05:00:00 13.1 4 Oeste 9 Sudoeste 0 -- -- 80
2020-07-25 04:00:00 14.1 5 Sudoeste 8 Sudoeste 0 -- -- 76
2020-07-25 03:00:00 14.9 3 Sudoeste 5 Sur 0 -- -- 73
2020-07-25 02:00:00 15.7 0 Calma 10 Sudoeste 0 -- -- 70
2020-07-25 01:00:00 16.5 3 Sur 9 Nordeste 0 -- -- 66
2020-07-25 00:00:00 17.4 3 Este 8 Este 0 -- -- 63
2020-07-24 23:00:00 18.5 5 Sudoeste 11 Noroeste 0 -- -- 59
2020-07-24 22:00:00 21.1 10 Noroeste 21 Norte 0 -- -- 52
2020-07-24 21:00:00 24.5 13 Norte 28 Noroeste 0 -- -- 45
2020-07-24 20:00:00 27.4 18 Norte 28 Norte 0 -- -- 35
2020-07-24 19:00:00 28.9 16 Norte 29 Norte 0 -- -- 34
2020-07-24 18:00:00 29.8 19 Noroeste 32 Oeste 0 -- -- 28
2020-07-24 17:00:00 29.8 16 Noroeste 37 Noroeste 0 -- -- 30
2020-07-24 16:00:00 30 18 Noroeste 31 Noroeste 0 -- -- 28
2020-07-24 15:00:00 29.2 10 Norte 24 Norte 0 -- -- 31
2020-07-24 14:00:00 27.6 8 Noroeste 19 Noroeste 0 -- -- 36
2020-07-24 13:00:00 26.4 5 Nordeste 14 Noroeste 0 -- -- 38
2020-07-24 12:00:00 24.2 6 Noroeste 14 Nordeste 0 -- -- 40
2020-07-24 11:00:00 22.1 5 Noroeste 14 Este 0 -- -- 45
2020-07-24 10:00:00 20.5 2 Oeste 10 Este 0 -- -- 52
2020-07-24 09:00:00 18.5 3 Nordeste 6 Este 0 -- -- 59
2020-07-24 08:00:00 17.3 2 Este 4 Nordeste 0 -- -- 67
2020-07-24 07:00:00 15.4 3 Noroeste 5 Oeste 0 -- -- 74
2020-07-24 06:00:00 16.4 4 Sudoeste 5 Sudeste 0 -- -- 69
2020-07-24 05:00:00 17.3 5 Norte 8 Norte 0 -- -- 69
2020-07-24 04:00:00 17.2 3 Oeste 11 Sudeste 0 -- -- 71
2020-07-24 03:00:00 17.9 4 Sudeste 6 Sudeste 0 -- -- 70
2020-07-24 02:00:00 18.8 0 Calma 8 Nordeste 0 -- -- 65
2020-07-24 01:00:00 19.7 4 Sudeste 9 Sudeste 0 -- -- 62
2020-07-24 00:00:00 21.2 4 Este 9 Sudeste 0 -- -- 56
2020-07-23 23:00:00 22.8 9 Norte 19 Oeste 0 -- -- 45
2020-07-23 22:00:00 24.5 17 Oeste 23 Oeste 0 -- -- 40
2020-07-23 21:00:00 26.9 17 Noroeste 29 Norte 0 -- -- 43
2020-07-23 20:00:00 29.3 16 Norte 33 Norte 0 -- -- 36
2020-07-23 19:00:00 31.2 18 Noroeste 40 Noroeste 0 -- -- 38
2020-07-23 18:00:00 31.8 22 Noroeste 38 Noroeste 0 -- -- 34
2020-07-23 17:00:00 32.9 16 Noroeste 32 Noroeste 0 -- -- 31
2020-07-23 16:00:00 32.8 18 Noroeste 36 Noroeste 0 -- -- 29
2020-07-23 15:00:00 32.3 17 Noroeste 34 Noroeste 0 -- -- 26
2020-07-23 14:00:00 32 8 Norte 21 Nordeste 0 -- -- 33
2020-07-23 13:00:00 30.5 6 Noroeste 13 Nordeste 0 -- -- 35
2020-07-23 12:00:00 28.4 5 Norte 12 Noroeste 0 -- -- 38
2020-07-23 11:00:00 25.3 3 Noroeste 9 Noroeste 0 -- -- 45
2020-07-23 10:00:00 22.3 3 Noroeste 6 Norte 0 -- -- 52
2020-07-23 09:00:00 20.7 4 Nordeste 7 Este 0 -- -- 58
2020-07-23 08:00:00 18 0 Calma 4 Este 0 -- -- 65
2020-07-23 07:00:00 16.5 0 Calma 5 Sudeste 0 -- -- 67
2020-07-23 06:00:00 17.5 0 Calma 4 Nordeste 0 -- -- 63
2020-07-23 05:00:00 18.2 2 Sudeste 4 Sudeste 0 -- -- 58
2020-07-23 04:00:00 18.8 0 Calma 6 Noroeste 0 -- -- 54
2020-07-23 03:00:00 18.9 5 Oeste 7 Sudoeste 0 -- -- 54
2020-07-23 02:00:00 20.9 3 Oeste 9 Noroeste 0 -- -- 47
2020-07-23 01:00:00 21.6 3 Noroeste 5 Noroeste 0 -- -- 46
2020-07-23 00:00:00 23.4 3 Sur 11 Sur 0 -- -- 40
2020-07-22 23:00:00 25.4 5 Oeste 13 Sudeste 0 -- -- 37
2020-07-22 22:00:00 25.8 13 Este 25 Este 0 -- -- 35
2020-07-22 21:00:00 28.6 15 Sur 30 Sur 0 -- -- 32
2020-07-22 20:00:00 30.2 20 Sur 33 Sur 0 -- -- 27
2020-07-22 19:00:00 31 20 Sur 35 Sur 0 -- -- 27
2020-07-22 18:00:00 32.8 20 Sur 33 Sur 0 -- -- 23
2020-07-22 17:00:00 32.9 9 Sur 23 Este 0 -- -- 23
2020-07-22 16:00:00 32.8 11 Sudoeste 21 Sudoeste 0 -- -- 23
2020-07-22 15:00:00 30.4 13 Sudoeste 25 Sudeste 0 -- -- 28
2020-07-22 14:00:00 31.5 10 Sur 41 Sudeste 0 -- -- 28
2020-07-22 13:00:00 30.5 21 Este 31 Sudeste 0 -- -- 32
2020-07-22 12:00:00 28 10 Sur 26 Sur 0 -- -- 37
2020-07-22 11:00:00 25.9 15 Sur 28 Sur 0 -- -- 39
2020-07-22 10:00:00 25.5 6 Sur 16 Sur 0 -- -- 50
2020-07-22 09:00:00 22.6 3 Norte 8 Sudoeste 0 -- -- 60
2020-07-22 08:00:00 20 2 Sudeste 10 Norte 0 -- -- 69
2020-07-22 07:00:00 20.5 8 Norte 16 Sudoeste 0 -- -- 66
2020-07-22 06:00:00 22.5 9 Sudoeste 23 Oeste 0 -- -- 60
2020-07-22 05:00:00 23.4 14 Sur 37 Sudeste 0 -- -- 58
2020-07-22 04:00:00 22.4 4 Norte 17 Sur 0 -- -- 60
2020-07-22 03:00:00 22.2 12 Sudeste 24 Sudeste 0 -- -- 62
2020-07-22 02:00:00 22.6 6 Sudoeste 14 Sudoeste 0 -- -- 55
2020-07-22 01:00:00 22.8 3 Oeste 24 Sudeste 0 -- -- 64
2020-07-22 00:00:00 23.6 2 Sudeste 12 Este 0 -- -- 64
2020-07-21 23:00:00 24.5 6 Noroeste 27 Oeste 0 -- -- 61
2020-07-21 22:00:00 27.8 16 Oeste 33 Sudoeste 0 -- -- 43
2020-07-21 21:00:00 29.1 18 Sudoeste 37 Sur 0 -- -- 39
2020-07-21 20:00:00 30.2 21 Sudoeste 33 Sudoeste 0 -- -- 34
2020-07-21 19:00:00 32 20 Sudoeste 31 Sudoeste 0 -- -- 30
2020-07-21 18:00:00 33.3 21 Sudoeste 30 Sur 0 -- -- 27
2020-07-21 17:00:00 33.6 19 Sur 31 Sur 0 -- -- 29
2020-07-21 16:00:00 33.7 17 Sudoeste 30 Sur 0 -- -- 29
2020-07-21 15:00:00 32.9 18 Sudoeste 30 Sur 0 -- -- 30
2020-07-21 14:00:00 31.6 20 Sudoeste 34 Sudoeste 0 -- -- 32
2020-07-21 13:00:00 30.4 20 Sur 35 Sur 0 -- -- 37
2020-07-21 12:00:00 28 17 Sur 29 Sur 0 -- -- 45
2020-07-21 11:00:00 26.4 17 Sur 27 Sur 0 -- -- 49
2020-07-21 10:00:00 24.6 15 Sur 27 Sur 0 -- -- 53
2020-07-21 09:00:00 20.8 2 Norte 8 Sur 0 -- -- 73
2020-07-21 08:00:00 18.8 0 Calma 5 Este 0 -- -- 79
2020-07-21 07:00:00 17.5 0 Calma 10 Noroeste 0 -- -- 83
2020-07-21 06:00:00 18.6 0 Calma 12 Noroeste 0 -- -- 77
2020-07-21 05:00:00 20.8 11 Sur 22 Sudeste 0 -- -- 67
2020-07-21 04:00:00 21.1 8 Sudeste 18 Este 0 -- -- 65
2020-07-21 03:00:00 22.3 12 Sur 19 Sudoeste 0 -- -- 60
2020-07-21 02:00:00 23.1 9 Sur 14 Sur 0 -- -- 58
2020-07-21 01:00:00 23.3 8 Sur 14 Sur 0 -- -- 58
2020-07-21 00:00:00 23.5 8 Sudeste 15 Sur 0 -- -- 59
2020-07-20 23:00:00 25.1 10 Sudeste 42 Sur 0 -- -- 55
2020-07-20 22:00:00 26.6 29 Sudoeste 44 Sur 0 -- -- 51
2020-07-20 21:00:00 28.6 24 Sudoeste 33 Sudoeste 0 -- -- 47
2020-07-20 20:00:00 31.1 16 Sudoeste 27 Sur 0 -- -- 32
2020-07-20 19:00:00 32 14 Sudoeste 26 Sur 0 -- -- 32
2020-07-20 18:00:00 32.1 16 Sur 33 Sur 0 -- -- 32
2020-07-20 17:00:00 32.4 19 Sur 33 Sur 0 -- -- 30
2020-07-20 16:00:00 32.7 17 Sur 31 Sur 0 -- -- 29
2020-07-20 15:00:00 31.9 18 Sudoeste 33 Sudoeste 0 -- -- 32
2020-07-20 14:00:00 30.6 20 Sudoeste 31 Sudoeste 0 -- -- 37
2020-07-20 13:00:00 29.4 18 Sudoeste 30 Sudoeste 0 -- -- 41
2020-07-20 12:00:00 28.6 9 Sur 20 Sudoeste 0 -- -- 45
2020-07-20 11:00:00 25.6 5 Nordeste 9 Nordeste 0 -- -- 53
2020-07-20 10:00:00 22.7 4 Noroeste 9 Noroeste 0 -- -- 59
2020-07-20 09:00:00 20.8 4 Norte 6 Norte 0 -- -- 65
2020-07-20 08:00:00 19 3 Norte 9 Norte 0 -- -- 68
2020-07-20 07:00:00 19.2 3 Norte 6 Norte 0 -- -- 68
2020-07-20 06:00:00 19 4 Noroeste 10 Sudeste 0 -- -- 68
2020-07-20 05:00:00 21.2 6 Sudeste 16 Sudeste 0 -- -- 63
2020-07-20 04:00:00 22.5 14 Sur 19 Sur 0 -- -- 62
2020-07-20 03:00:00 23 6 Sur 19 Sudeste 0 -- -- 61
2020-07-20 02:00:00 23.7 14 Este 30 Sudoeste 0 -- -- 58
2020-07-20 01:00:00 25.1 14 Sudoeste 36 Sudoeste 0 -- -- 53
2020-07-20 00:00:00 26.3 24 Sudoeste 36 Sudoeste 0 -- -- 47
2020-07-19 23:00:00 25.7 6 Sudoeste 13 Noroeste 0 -- -- 40
2020-07-19 22:00:00 25.9 8 Oeste 15 Sudoeste 0 -- -- 39
2020-07-19 21:00:00 29.8 5 Sudoeste 9 Noroeste 0 -- -- 32
2020-07-19 20:00:00 32.5 3 Nordeste 12 Oeste 0 -- -- 26
2020-07-19 19:00:00 31.6 5 Oeste 14 Sudoeste 0 -- -- 33
2020-07-19 18:00:00 31.5 5 Sudoeste 14 Oeste 0 -- -- 31
2020-07-19 17:00:00 32.4 6 Sur 22 Este 0 -- -- 30
2020-07-19 16:00:00 33 13 Este 22 Sur 0 -- -- 29
2020-07-19 15:00:00 32.1 12 Sudeste 23 Sur 0 -- -- 31
2020-07-19 14:00:00 31 7 Sur 23 Sur 0 -- -- 32
2020-07-19 13:00:00 30.1 10 Sur 22 Sur 0 -- -- 34
2020-07-19 12:00:00 29 12 Sur 21 Sur 0 -- -- 36
2020-07-19 11:00:00 26.1 12 Sur 24 Sur 0 -- -- 48
2020-07-19 10:00:00 24.2 14 Sur 22 Sur 0 -- -- 53
2020-07-19 09:00:00 21.9 17 Sur 26 Sur 0 -- -- 65
2020-07-19 08:00:00 20.7 11 Sur 28 Sudeste 0 -- -- 69
2020-07-19 07:00:00 18.2 12 Sudeste 20 Sur 0 -- -- 67
2020-07-19 06:00:00 17.6 4 Sudeste 16 Sudeste 0 -- -- 70
2020-07-19 05:00:00 18.8 11 Sudeste 17 Sudeste 0 -- -- 66
2020-07-19 04:00:00 19.1 5 Sur 16 Sudeste 0 -- -- 68
2020-07-19 03:00:00 18.5 3 Sur 13 Sur 0 -- -- 70
2020-07-19 02:00:00 20.6 5 Sudeste 10 Sudeste 0 -- -- 64
2020-07-19 01:00:00 19.7 3 Oeste 9 Sudoeste 0 -- -- 69
2020-07-19 00:00:00 21.1 7 Sudoeste 10 Sudoeste 0 -- -- 66
2020-07-18 23:00:00 22.6 4 Sudoeste 9 Sudoeste 0 -- -- 60
2020-07-18 22:00:00 24.7 5 Noroeste 15 Noroeste 0 -- -- 53
2020-07-18 21:00:00 28.4 12 Norte 21 Noroeste 0 -- -- 44
2020-07-18 20:00:00 31.2 12 Noroeste 21 Noroeste 0 -- -- 24
2020-07-18 19:00:00 31.8 12 Noroeste 22 Noroeste 0 -- -- 24
2020-07-18 18:00:00 31.9 10 Noroeste 20 Noroeste 0 -- -- 24
2020-07-18 17:00:00 31.6 12 Norte 23 Norte 0 -- -- 27
2020-07-18 16:00:00 30.6 12 Norte 24 Noroeste 0 -- -- 31
2020-07-18 15:00:00 29.4 12 Norte 26 Norte 0 -- -- 33
2020-07-18 14:00:00 27.9 5 Nordeste 19 Nordeste 0 -- -- 36
2020-07-18 13:00:00 26.2 6 Noroeste 24 Nordeste 0 -- -- 39
2020-07-18 12:00:00 23.7 6 Noroeste 11 Noroeste 0 -- -- 45
2020-07-18 11:00:00 22 4 Norte 13 Nordeste 0 -- -- 49
2020-07-18 10:00:00 18.9 4 Noroeste 8 Norte 0 -- -- 58
2020-07-18 09:00:00 17.5 4 Este 8 Este 0 -- -- 63
2020-07-18 08:00:00 14.2 0 Calma 5 Noroeste 0 -- -- 75
2020-07-18 07:00:00 11.7 5 Oeste 9 Sur 0 -- -- 81
2020-07-18 06:00:00 12.9 7 Sur 10 Sur 0 -- -- 76
2020-07-18 05:00:00 13.3 4 Sur 8 Noroeste 0 -- -- 74
2020-07-18 04:00:00 13 9 Noroeste 10 Noroeste 0 -- -- 76
2020-07-18 03:00:00 13.9 2 Norte 6 Noroeste 0 -- -- 73
2020-07-18 02:00:00 15.7 3 Sur 8 Sudoeste 0 -- -- 65
2020-07-18 01:00:00 15.9 7 Sudoeste 9 Sudoeste 0 -- -- 66
2020-07-18 00:00:00 16.6 7 Sur 9 Sur 0 -- -- 64
2020-07-17 23:00:00 17.5 2 Oeste 6 Norte 0 -- -- 61
2020-07-17 22:00:00 18.9 5 Noroeste 20 Norte 0 -- -- 56
2020-07-17 21:00:00 21.6 15 Norte 27 Norte 0 -- -- 49
2020-07-17 20:00:00 24.2 15 Noroeste 27 Noroeste 0 -- -- 43
2020-07-17 19:00:00 25.1 18 Noroeste 32 Norte 0 -- -- 42
2020-07-17 18:00:00 25.8 22 Noroeste 35 Noroeste 0 -- -- 40
2020-07-17 17:00:00 26.7 21 Noroeste 35 Norte 0 -- -- 38
2020-07-17 16:00:00 27.1 16 Noroeste 32 Oeste 0 -- -- 36
2020-07-17 15:00:00 26.4 21 Oeste 31 Oeste 0 -- -- 41
2020-07-17 14:00:00 25.1 7 Oeste 21 Norte 0 -- -- 39
2020-07-17 13:00:00 23.8 11 Noroeste 26 Noroeste 0 -- -- 44
2020-07-17 12:00:00 22.6 8 Nordeste 21 Norte 0 -- -- 49
2020-07-17 11:00:00 20.1 9 Norte 20 Norte 0 -- -- 54
2020-07-17 10:00:00 18.7 7 Nordeste 13 Este 0 -- -- 58
2020-07-17 09:00:00 16.6 4 Este 6 Este 0 -- -- 67
2020-07-17 08:00:00 12.6 2 Noroeste 4 Noroeste 0 -- -- 77
2020-07-17 07:00:00 11.4 2 Oeste 3 Oeste 0 -- -- 81
2020-07-17 06:00:00 11.6 0 Calma 8 Sur 0 -- -- 79
2020-07-17 05:00:00 12.2 3 Sur 6 Sur 0 -- -- 77
2020-07-17 04:00:00 12.2 0 Calma 8 Sudoeste 0 -- -- 75
2020-07-17 03:00:00 13.3 8 Sudoeste 10 Sudoeste 0 -- -- 71
2020-07-17 02:00:00 14.1 5 Sur 9 Sudoeste 0 -- -- 68
2020-07-17 01:00:00 14.6 4 Sudoeste 6 Sur 0 -- -- 66
2020-07-17 00:00:00 15.7 3 Sur 6 Sudoeste 0 -- -- 65
2020-07-16 23:00:00 17.2 3 Sur 13 Nordeste 0 -- -- 60
2020-07-16 22:00:00 19.4 6 Norte 25 Norte 0 -- -- 62
2020-07-16 21:00:00 22 17 Norte 26 Norte 0 -- -- 50
2020-07-16 20:00:00 24.3 17 Noroeste 27 Norte 0 -- -- 46
2020-07-16 19:00:00 26.2 18 Norte 32 Noroeste 0 -- -- 44
2020-07-16 18:00:00 27.4 18 Norte 29 Norte 0 -- -- 43
2020-07-16 17:00:00 27.8 12 Noroeste 29 Oeste 0 -- -- 43
2020-07-16 16:00:00 27.4 14 Norte 27 Noroeste 0 -- -- 43
2020-07-16 15:00:00 26.6 12 Norte 26 Norte 0 -- -- 41
2020-07-16 14:00:00 25.1 12 Norte 25 Norte 0 -- -- 43
2020-07-16 13:00:00 23.1 9 Norte 20 Norte 0 -- -- 46
2020-07-16 12:00:00 21.5 8 Norte 20 Noroeste 0 -- -- 49
2020-07-16 11:00:00 19.2 6 Norte 13 Norte 0 -- -- 52
2020-07-16 10:00:00 17.8 5 Nordeste 11 Nordeste 0 -- -- 54
2020-07-16 09:00:00 16.5 6 Este 12 Sudeste 0 -- -- 58
2020-07-16 08:00:00 13.3 0 Calma 3 Este 0 -- -- 66
2020-07-16 07:00:00 10.7 2 Noroeste 6 Noroeste 0 -- -- 73
2020-07-16 06:00:00 11.1 3 Oeste 5 Sudoeste 0 -- -- 71
2020-07-16 05:00:00 11.9 3 Oeste 7 Sudoeste 0 -- -- 68
2020-07-16 04:00:00 11.9 0 Calma 7 Sudoeste 0 -- -- 68
2020-07-16 03:00:00 13.2 2 Sur 10 Sudoeste 0 -- -- 62
2020-07-16 02:00:00 13.3 5 Sur 10 Sudoeste 0 -- -- 64
2020-07-16 01:00:00 14 0 Calma 6 Sudeste 0 -- -- 61
2020-07-16 00:00:00 14.4 4 Noroeste 18 Noroeste 0 -- -- 60
2020-07-15 23:00:00 15.2 14 Noroeste 26 Noroeste 0 -- -- 59
2020-07-15 22:00:00 16.8 19 Noroeste 35 Noroeste 0 -- -- 55
2020-07-15 21:00:00 18.5 23 Noroeste 42 Noroeste 0 -- -- 52
2020-07-15 20:00:00 19.9 28 Noroeste 46 Noroeste 0 -- -- 48
2020-07-15 19:00:00 21.2 27 Noroeste 49 Noroeste 0 -- -- 44
2020-07-15 18:00:00 21.5 35 Noroeste 53 Noroeste 0 -- -- 44
2020-07-15 17:00:00 21.7 27 Noroeste 45 Noroeste 0 -- -- 46
2020-07-15 16:00:00 21.5 26 Noroeste 50 Noroeste 0 -- -- 52
2020-07-15 15:00:00 20.9 31 Noroeste 51 Noroeste 0 -- -- 51
2020-07-15 14:00:00 22.3 31 Norte 46 Noroeste 0 -- -- 48
2020-07-15 13:00:00 22 29 Noroeste 49 Noroeste 0 -- -- 52
2020-07-15 12:00:00 18.9 26 Noroeste 44 Noroeste 0 -- -- 63
2020-07-15 11:00:00 18.5 23 Noroeste 35 Noroeste 0 -- -- 63
2020-07-15 10:00:00 15.9 7 Oeste 13 Noroeste 0 -- -- 63
2020-07-15 09:00:00 14.1 0 Calma 6 Sudeste 0 -- -- 59
2020-07-15 08:00:00 12.5 3 Sur 6 Sudeste 0 -- -- 63
2020-07-15 07:00:00 12.1 4 Sudoeste 6 Sudoeste 0 -- -- 64
2020-07-15 06:00:00 11.5 4 Sudoeste 6 Sudoeste 0 -- -- 68
2020-07-15 05:00:00 11.3 3 Sudoeste 8 Sudoeste 0 -- -- 68
2020-07-15 04:00:00 11.8 3 Sudoeste 7 Sudoeste 0 -- -- 68
2020-07-15 03:00:00 12.4 3 Sur 8 Sur 0 -- -- 66
2020-07-15 02:00:00 13.2 3 Sur 5 Sur 0 -- -- 64
2020-07-15 01:00:00 13.8 3 Este 9 Oeste 0 -- -- 63
2020-07-15 00:00:00 14.7 6 Sudeste 11 Este 0 -- -- 64
2020-07-14 23:00:00 15.9 3 Noroeste 19 Noroeste 0 -- -- 58
2020-07-14 22:00:00 17.3 13 Norte 25 Norte 0 -- -- 56
2020-07-14 21:00:00 19.9 17 Norte 24 Norte 0 -- -- 51
2020-07-14 20:00:00 21.5 14 Noroeste 33 Norte 0 -- -- 48
2020-07-14 19:00:00 23.3 23 Norte 33 Noroeste 0 -- -- 42
2020-07-14 18:00:00 25.3 18 Noroeste 31 Norte 0 -- -- 40
2020-07-14 17:00:00 26.3 20 Noroeste 30 Noroeste 0 -- -- 39
2020-07-14 16:00:00 25 9 Norte 21 Norte 0 -- -- 40
2020-07-14 15:00:00 24.4 10 Noroeste 21 Noroeste 0 -- -- 41
2020-07-14 14:00:00 23.9 9 Norte 21 Norte 0 -- -- 40
2020-07-14 13:00:00 22.6 6 Noroeste 17 Noroeste 0 -- -- 41
2020-07-14 12:00:00 20 3 Sudoeste 11 Oeste 0 -- -- 44
2020-07-14 11:00:00 18.1 5 Nordeste 9 Nordeste 0 -- -- 50
2020-07-14 10:00:00 16.9 2 Sudeste 8 Este 0 -- -- 51
2020-07-14 09:00:00 15.7 3 Nordeste 6 Nordeste 0 -- -- 59
2020-07-14 08:00:00 13.1 0 Calma 5 Sudoeste 0 -- -- 75
2020-07-14 07:00:00 12.8 3 Sudoeste 5 Sudoeste 0 -- -- 74
2020-07-14 06:00:00 12.9 0 Calma 7 Sudoeste 0 -- -- 70
2020-07-14 05:00:00 12.7 4 Sudoeste 8 Sudoeste 0 -- -- 68
2020-07-14 04:00:00 12.8 2 Sudoeste 8 Sudoeste 0 -- -- 67
2020-07-14 03:00:00 13.8 4 Sur 9 Sur 0 -- -- 65
2020-07-14 02:00:00 14 0 Calma 7 Sudeste 0 -- -- 68
2020-07-14 01:00:00 14.9 5 Sur 10 Sudeste 0 -- -- 66
2020-07-14 00:00:00 15.5 6 Sur 9 Sur 0 -- -- 66
2020-07-13 23:00:00 17 7 Noroeste 28 Noroeste 0 -- -- 60
2020-07-13 22:00:00 18.9 21 Norte 33 Norte 0 -- -- 54
2020-07-13 21:00:00 21.5 21 Norte 36 Noroeste 0 -- -- 46
2020-07-13 20:00:00 23.3 26 Noroeste 43 Norte 0 -- -- 44
2020-07-13 19:00:00 24.8 26 Noroeste 40 Noroeste 0 -- -- 47
2020-07-13 18:00:00 26.3 23 Norte 37 Norte 0 -- -- 44
2020-07-13 17:00:00 27.1 22 Norte 38 Norte 0 -- -- 42
2020-07-13 16:00:00 28.1 18 Noroeste 32 Norte 0 -- -- 41
2020-07-13 15:00:00 28.1 17 Norte 31 Noroeste 0 -- -- 40
2020-07-13 14:00:00 27.3 15 Noroeste 24 Noroeste 0 -- -- 43
2020-07-13 13:00:00 26 12 Noroeste 21 Noroeste 0 -- -- 51
2020-07-13 12:00:00 24.1 9 Noroeste 18 Noroeste 0 -- -- 57
2020-07-13 11:00:00 22.1 8 Noroeste 14 Oeste 0 -- -- 63
2020-07-13 10:00:00 20.4 6 Norte 13 Noroeste 0 -- -- 72
2020-07-13 09:00:00 19.6 3 Este 6 Nordeste 0 -- -- 76
2020-07-13 08:00:00 17.1 0 Calma 6 Sudeste 0 -- -- 89
2020-07-13 07:00:00 15.3 0 Calma 6 Noroeste 0 -- -- 91
2020-07-13 06:00:00 16.1 0 Calma 5 Sudoeste 0 -- -- 89
2020-07-13 05:00:00 16.2 4 Noroeste 9 Noroeste 0 -- -- 88
2020-07-13 04:00:00 17.4 3 Oeste 8 Sudoeste 0 -- -- 83
2020-07-13 03:00:00 17.8 5 Sudoeste 9 Noroeste 0 -- -- 83
2020-07-13 02:00:00 18.7 6 Noroeste 11 Oeste 0 -- -- 80
2020-07-13 01:00:00 18.5 5 Oeste 18 Nordeste 0 -- -- 82
2020-07-13 00:00:00 20.1 10 Norte 28 Noroeste 0 -- -- 71
2020-07-12 23:00:00 22 5 Noroeste 18 Sudoeste 0 -- -- 71
2020-07-12 22:00:00 23.5 8 Sudoeste 14 Sudoeste 0 -- -- 66
2020-07-12 21:00:00 25.4 14 Sur 28 Sur 0 -- -- 59
2020-07-12 20:00:00 26.9 11 Sur 27 Sur 0 -- -- 50
2020-07-12 19:00:00 27.7 18 Sur 30 Sur 0 -- -- 48
2020-07-12 18:00:00 27.5 8 Sur 22 Sudeste 0 -- -- 46
2020-07-12 17:00:00 25.4 4 Este 19 Sur 0 -- -- 61
2020-07-12 16:00:00 23.2 15 Sur 21 Sur 0 -- -- 68
2020-07-12 15:00:00 20.7 7 Sudeste 17 Este 0 -- -- 80
2020-07-12 14:00:00 19.7 10 Este 28 Este 0 -- -- 85
2020-07-12 13:00:00 19.5 10 Oeste 25 Sudoeste 3.8 -- -- 86
2020-07-12 12:00:00 22 12 Noroeste 17 Noroeste 0 -- -- 66
2020-07-12 11:00:00 21.7 10 Noroeste 30 Norte 0 -- -- 64
2020-07-12 10:00:00 20.6 12 Norte 21 Norte 0 -- -- 71
2020-07-12 09:00:00 18.6 6 Sudeste 14 Noroeste 0 -- -- 80
2020-07-12 08:00:00 17.5 10 Noroeste 17 Sudeste 0 -- -- 81
2020-07-12 07:00:00 17 3 Norte 16 Sudeste 0 -- -- 82
2020-07-12 06:00:00 19.2 6 Sur 21 Sur 0 -- -- 73
2020-07-12 05:00:00 17.8 3 Sur 10 Sur 0 -- -- 78
2020-07-12 04:00:00 18.5 2 Sudoeste 5 Oeste 0 -- -- 74
2020-07-12 03:00:00 19.1 2 Sudoeste 4 Oeste 0 -- -- 71
2020-07-12 02:00:00 19.9 0 Calma 7 Sudoeste 0 -- -- 69
2020-07-12 01:00:00 20.8 2 Sudoeste 6 Sur 0 -- -- 66
2020-07-12 00:00:00 21.2 6 Sudoeste 8 Sudoeste 0 -- -- 65
2020-07-11 23:00:00 22.5 6 Sudeste 9 Sudeste 0 -- -- 61
2020-07-11 22:00:00 24.6 0 Calma 14 Noroeste 0 -- -- 54
2020-07-11 21:00:00 27.6 8 Noroeste 16 Noroeste 0 -- -- 47
2020-07-11 20:00:00 29.9 10 Norte 20 Norte 0 -- -- 38
2020-07-11 19:00:00 29.5 8 Norte 17 Nordeste 0 -- -- 40
2020-07-11 18:00:00 29 4 Norte 13 Noroeste 0 -- -- 42
2020-07-11 17:00:00 29.5 8 Oeste 15 Noroeste 0 -- -- 43
2020-07-11 16:00:00 28.9 6 Noroeste 24 Noroeste 0 -- -- 47
2020-07-11 15:00:00 28.8 7 Norte 19 Nordeste 0 -- -- 47
2020-07-11 14:00:00 27.2 6 Noroeste 15 Noroeste 0 -- -- 51
2020-07-11 13:00:00 25.5 6 Nordeste 15 Oeste 0 -- -- 54
2020-07-11 12:00:00 22.9 6 Noroeste 13 Este 0 -- -- 59
2020-07-11 11:00:00 20.3 3 Noroeste 10 Nordeste 0 -- -- 65
2020-07-11 10:00:00 18.3 3 Nordeste 10 Norte 0 -- -- 72
2020-07-11 09:00:00 17.6 4 Nordeste 8 Nordeste 0 -- -- 73
2020-07-11 08:00:00 16 0 Calma 5 Este 0 -- -- 83
2020-07-11 07:00:00 13.9 3 Oeste 8 Sudoeste 0 -- -- 86
2020-07-11 06:00:00 13.9 3 Oeste 4 Oeste 0 -- -- 87
2020-07-11 05:00:00 14.2 3 Noroeste 6 Sudoeste 0 -- -- 86
2020-07-11 04:00:00 15.1 4 Sudoeste 6 Sudoeste 0 -- -- 83
2020-07-11 03:00:00 15.5 0 Calma 6 Sur 0 -- -- 81
2020-07-11 02:00:00 16.2 2 Sur 5 Sur 0 -- -- 79
2020-07-11 01:00:00 16.7 0 Calma 5 Nordeste 0 -- -- 78
2020-07-11 00:00:00 17.3 0 Calma 10 Nordeste 0 -- -- 76
2020-07-10 23:00:00 18.7 6 Norte 16 Norte 0 -- -- 71
2020-07-10 22:00:00 20.7 11 Norte 20 Noroeste 0 -- -- 67
2020-07-10 21:00:00 23.7 15 Norte 22 Norte 0 -- -- 59
2020-07-10 20:00:00 26 13 Norte 29 Noroeste 0 -- -- 55
2020-07-10 19:00:00 27 19 Norte 35 Norte 0 -- -- 53
2020-07-10 18:00:00 28.6 18 Noroeste 31 Noroeste 0 -- -- 50
2020-07-10 17:00:00 27.6 16 Norte 30 Norte 0 -- -- 51
2020-07-10 16:00:00 29 13 Norte 27 Sudoeste 0 -- -- 50
2020-07-10 15:00:00 30 12 Sudoeste 29 Sudoeste 0 -- -- 37
2020-07-10 14:00:00 28.5 8 Norte 19 Noroeste 0 -- -- 44
2020-07-10 13:00:00 26.5 6 Norte 14 Noroeste 0 -- -- 59
2020-07-10 12:00:00 24.4 8 Noroeste 14 Norte 0 -- -- 65
2020-07-10 11:00:00 22.3 4 Norte 11 Noroeste 0 -- -- 71
2020-07-10 10:00:00 20.6 3 Norte 8 Norte 0 -- -- 78
2020-07-10 09:00:00 20 4 Nordeste 8 Nordeste 0 -- -- 79
2020-07-10 08:00:00 17.9 3 Noroeste 5 Noroeste 0 -- -- 90
2020-07-10 07:00:00 17.1 4 Oeste 6 Oeste 0 -- -- 91
2020-07-10 06:00:00 17.4 4 Noroeste 7 Noroeste 2.2 -- -- 89
2020-07-10 05:00:00 16.9 5 Oeste 6 Oeste 0 -- -- 86
2020-07-10 04:00:00 18.1 3 Noroeste 8 Oeste 0 -- -- 79
2020-07-10 03:00:00 18.8 2 Oeste 8 Oeste 0 -- -- 78
2020-07-10 02:00:00 19 4 Noroeste 7 Noroeste 0 -- -- 76
2020-07-10 01:00:00 19.1 4 Noroeste 8 Sudeste 0 -- -- 74
2020-07-10 00:00:00 20.5 4 Norte 6 Oeste 0 -- -- 67
2020-07-09 23:00:00 22 4 Nordeste 9 Sur 0 -- -- 64
2020-07-09 22:00:00 23.6 4 Oeste 12 Sudeste 0 -- -- 55
2020-07-09 21:00:00 24.4 6 Oeste 33 Noroeste 0 -- -- 53
2020-07-09 20:00:00 26.8 13 Oeste 22 Noroeste 0 -- -- 52
2020-07-09 19:00:00 30.3 13 Norte 22 Nordeste 0 -- -- 41
2020-07-09 18:00:00 31.8 9 Sur 25 Sudoeste 0 -- -- 35
2020-07-09 17:00:00 32.1 13 Sur 27 Sur 0 -- -- 38
2020-07-09 16:00:00 31.4 14 Sur 24 Sur 0 -- -- 40
2020-07-09 15:00:00 29.9 9 Sur 26 Sur 0 -- -- 43
2020-07-09 14:00:00 30.8 10 Sur 23 Sur 0 -- -- 45
2020-07-09 13:00:00 29.1 6 Norte 14 Noroeste 0 -- -- 49
2020-07-09 12:00:00 26.7 8 Sudeste 15 Sur 0 -- -- 55
2020-07-09 11:00:00 25.6 4 Nordeste 22 Sur 0 -- -- 59
2020-07-09 10:00:00 23 8 Sudeste 30 Sur 0 -- -- 66
2020-07-09 09:00:00 22.3 10 Sur 19 Sur 0 -- -- 70
2020-07-09 08:00:00 20 9 Oeste 14 Sudoeste 0 -- -- 70
2020-07-09 07:00:00 19.9 11 Este 25 Sudoeste 0 -- -- 75
2020-07-09 06:00:00 19.1 6 Norte 14 Nordeste 0 -- -- 67
2020-07-09 05:00:00 19.9 5 Sudeste 10 Oeste 0 -- -- 64
2020-07-09 04:00:00 20.7 9 Nordeste 27 Sudeste 0 -- -- 60
2020-07-09 03:00:00 22 5 Sudoeste 13 Oeste 0 -- -- 56
2020-07-09 02:00:00 22.9 4 Sur 9 Sudoeste 0 -- -- 53
2020-07-09 01:00:00 23.7 6 Sudeste 18 Sur 0 -- -- 50
2020-07-09 00:00:00 24.8 10 Sur 24 Sur 0 -- -- 47
2020-07-08 23:00:00 25.7 8 Sudoeste 28 Sudeste 0 -- -- 46
2020-07-08 22:00:00 26.5 15 Sudeste 34 Sur 0 -- -- 43
2020-07-08 21:00:00 27.6 23 Sudoeste 41 Sudoeste 0 -- -- 42
2020-07-08 20:00:00 29.9 24 Sudoeste 40 Sudoeste 0 -- -- 36
2020-07-08 19:00:00 31.6 18 Sur 30 Sur 0 -- -- 34
2020-07-08 18:00:00 32.7 4 Sudoeste 18 Sudoeste 0 -- -- 30
2020-07-08 17:00:00 32 11 Sudoeste 17 Sudoeste 0 -- -- 31
2020-07-08 16:00:00 31.7 8 Sudoeste 25 Sur 0 -- -- 33
2020-07-08 15:00:00 30 6 Sur 24 Sudeste 0 -- -- 36
2020-07-08 14:00:00 29 22 Sudeste 29 Sudeste 0 -- -- 35
2020-07-08 13:00:00 28.4 14 Sur 25 Sudeste 0 -- -- 38
2020-07-08 12:00:00 26.8 13 Sur 22 Sur 0 -- -- 41
2020-07-08 11:00:00 25.5 13 Sudeste 23 Sur 0 -- -- 45
2020-07-08 10:00:00 22.1 11 Sudeste 20 Sudeste 0 -- -- 54
2020-07-08 09:00:00 16.9 0 Calma 5 Oeste 0 -- -- 68
2020-07-08 08:00:00 14.7 3 Este 5 Sudeste 0 -- -- 76
2020-07-08 07:00:00 13.1 3 Sudoeste 4 Sudoeste 0 -- -- 79
2020-07-08 06:00:00 13 2 Noroeste 6 Oeste 0 -- -- 78
2020-07-08 05:00:00 13.5 2 Sudoeste 4 Norte 0 -- -- 77
2020-07-08 04:00:00 14.5 0 Calma 5 Este 0 -- -- 73
2020-07-08 03:00:00 15.8 0 Calma 4 Nordeste 0 -- -- 67
2020-07-08 02:00:00 16.7 0 Calma 3 Este 0 -- -- 65
2020-07-08 01:00:00 17.7 2 Este 5 Oeste 0 -- -- 61
2020-07-08 00:00:00 18.8 4 Oeste 10 Sudoeste 0 -- -- 58
2020-07-07 23:00:00 20.7 3 Sudoeste 9 Sudoeste 0 -- -- 53
2020-07-07 22:00:00 22.7 5 Este 17 Noroeste 0 -- -- 47
2020-07-07 21:00:00 26.8 11 Norte 17 Norte 0 -- -- 38
2020-07-07 20:00:00 29 11 Norte 21 Norte 0 -- -- 29
2020-07-07 19:00:00 29.5 15 Noroeste 24 Noroeste 0 -- -- 26
2020-07-07 18:00:00 29.7 16 Noroeste 27 Noroeste 0 -- -- 29
2020-07-07 17:00:00 29.6 14 Noroeste 25 Noroeste 0 -- -- 28
2020-07-07 16:00:00 28.5 13 Norte 24 Noroeste 0 -- -- 30
2020-07-07 15:00:00 27.6 10 Norte 23 Norte 0 -- -- 34
2020-07-07 14:00:00 25.3 8 Norte 33 Norte 0 -- -- 38
2020-07-07 13:00:00 23.4 7 Nordeste 15 Noroeste 0 -- -- 43
2020-07-07 12:00:00 21 6 Nordeste 14 Noroeste 0 -- -- 47
2020-07-07 11:00:00 18.4 6 Noroeste 14 Norte 0 -- -- 54
2020-07-07 10:00:00 17 3 Norte 14 Este 0 -- -- 60
2020-07-07 09:00:00 16.1 6 Este 10 Este 0 -- -- 65
2020-07-07 08:00:00 14 4 Sudeste 9 Sudoeste 0 -- -- 69
2020-07-07 07:00:00 10 5 Sudoeste 8 Sudoeste 0 -- -- 83
2020-07-07 06:00:00 10.6 5 Sudoeste 9 Sudoeste 0 -- -- 79
2020-07-07 05:00:00 11.7 5 Sudoeste 7 Sudoeste 0 -- -- 75
2020-07-07 04:00:00 12.2 5 Sur 8 Sur 0 -- -- 73
2020-07-07 03:00:00 12.3 0 Calma 4 Sudoeste 0 -- -- 74
2020-07-07 02:00:00 12.7 2 Oeste 6 Noroeste 0 -- -- 72
2020-07-07 01:00:00 13.6 4 Sudoeste 8 Norte 0 -- -- 70
2020-07-07 00:00:00 15 2 Sur 8 Noroeste 0 -- -- 68